createdAt,value
2023-12-03T00:02:05.823Z,75.74
2023-12-03T00:07:08.773Z,75.80
2023-12-03T00:12:11.139Z,75.74
2023-12-03T00:17:13.521Z,75.60
2023-12-03T00:22:16.065Z,75.95
2023-12-03T00:27:19.369Z,76.18
2023-12-03T00:32:21.689Z,75.74
2023-12-03T00:37:24.302Z,76.28
2023-12-03T00:42:26.542Z,76.04
2023-12-03T00:47:28.675Z,76.22
2023-12-03T00:52:31.063Z,76.23
2023-12-03T00:57:33.825Z,76.28
2023-12-03T01:02:37.152Z,76.62
2023-12-03T01:07:39.408Z,76.33
2023-12-03T01:12:41.644Z,76.50
2023-12-03T01:17:44.118Z,76.39
2023-12-03T01:22:46.643Z,76.38
2023-12-03T01:27:48.902Z,76.41
2023-12-03T01:32:51.040Z,76.13
2023-12-03T01:37:53.121Z,75.94
2023-12-03T01:42:55.367Z,76.16
2023-12-03T01:47:57.721Z,75.96
2023-12-03T01:52:59.762Z,76.15
2023-12-03T01:58:03.259Z,76.05
2023-12-03T02:03:05.485Z,76.49
2023-12-03T02:08:07.721Z,76.30
2023-12-03T02:13:11.308Z,76.29
2023-12-03T02:18:13.880Z,76.35
2023-12-03T02:23:16.402Z,76.47
2023-12-03T02:28:19.619Z,76.59
2023-12-03T02:33:22.289Z,76.35
2023-12-03T02:38:24.373Z,76.38
2023-12-03T02:43:26.587Z,76.63
2023-12-03T02:48:28.836Z,76.61
2023-12-03T02:53:31.711Z,76.58
2023-12-03T02:58:34.699Z,76.56
2023-12-03T03:03:37.078Z,76.72
2023-12-03T03:08:39.739Z,76.73
2023-12-03T03:13:41.730Z,76.77
2023-12-03T03:18:43.786Z,76.66
2023-12-03T03:23:45.974Z,76.73
2023-12-03T03:28:52.029Z,76.40
2023-12-03T03:33:55.992Z,76.71
2023-12-03T03:38:58.293Z,76.84
2023-12-03T03:44:00.362Z,77.13
2023-12-03T03:49:05.608Z,77.00
2023-12-03T03:54:07.955Z,77.01
2023-12-03T03:59:09.953Z,77.02
2023-12-03T04:04:13.428Z,77.23
2023-12-03T04:09:15.714Z,77.21
2023-12-03T04:14:19.640Z,77.33
2023-12-03T04:19:21.727Z,77.36
2023-12-03T04:24:23.853Z,77.18
2023-12-03T04:29:26.002Z,77.43
2023-12-03T04:34:28.431Z,77.30
2023-12-03T04:39:31.297Z,77.97
2023-12-03T04:44:33.510Z,77.94
2023-12-03T04:49:35.714Z,77.81
2023-12-03T04:54:37.840Z,77.81
2023-12-03T04:59:40.258Z,77.84
2023-12-03T05:04:42.528Z,77.80
2023-12-03T05:09:44.599Z,78.18
2023-12-03T05:14:46.714Z,78.08
2023-12-03T05:19:48.746Z,78.40
2023-12-03T05:24:51.958Z,78.43
2023-12-03T05:29:54.369Z,78.18
2023-12-03T05:34:56.580Z,78.22
2023-12-03T05:39:59.825Z,78.44
2023-12-03T05:45:01.853Z,78.22
2023-12-03T05:50:05.926Z,78.81
2023-12-03T05:55:08.793Z,78.73
2023-12-03T06:00:12.194Z,78.57
2023-12-03T06:05:15.176Z,78.84
2023-12-03T06:10:17.729Z,78.67
2023-12-03T06:15:19.996Z,78.82
2023-12-03T06:20:22.200Z,78.44
2023-12-03T06:25:25.010Z,78.55
2023-12-03T06:30:27.135Z,78.50
2023-12-03T06:35:29.460Z,78.55
2023-12-03T06:40:31.537Z,78.63
2023-12-03T06:45:34.242Z,78.38
2023-12-03T06:50:37.361Z,78.28
2023-12-03T06:55:39.563Z,78.61
2023-12-03T07:00:42.076Z,78.20
2023-12-03T07:05:44.341Z,78.43
2023-12-03T07:10:46.485Z,78.60
2023-12-03T07:15:48.819Z,78.30
2023-12-03T07:20:51.307Z,78.23
2023-12-03T07:25:53.577Z,78.46
2023-12-03T07:30:55.739Z,78.78
2023-12-03T07:35:57.999Z,78.70
2023-12-03T07:41:01.277Z,78.34
2023-12-03T07:46:03.444Z,78.54
2023-12-03T07:51:11.089Z,78.46
2023-12-03T07:56:13.242Z,78.35
2023-12-03T08:01:15.453Z,78.06
2023-12-03T08:06:17.559Z,78.33
2023-12-03T08:11:21.044Z,78.50
2023-12-03T08:16:23.195Z,78.34
2023-12-03T08:21:25.376Z,78.34
2023-12-03T08:26:28.326Z,78.24
2023-12-03T08:31:30.399Z,78.15
2023-12-03T08:36:32.801Z,78.02
2023-12-03T08:41:38.050Z,77.97
2023-12-03T08:46:40.277Z,77.99
2023-12-03T08:51:42.514Z,77.78
2023-12-03T08:56:47.721Z,77.81
2023-12-03T09:01:51.598Z,77.66
2023-12-03T09:06:53.791Z,77.34
2023-12-03T09:11:55.947Z,77.14
2023-12-03T09:16:59.707Z,77.33
2023-12-03T09:22:01.879Z,77.22
2023-12-03T09:27:04.233Z,76.68
2023-12-03T09:32:06.478Z,76.70
2023-12-03T09:37:09.683Z,76.82
2023-12-03T09:42:18.382Z,76.55
2023-12-03T09:47:25.489Z,76.30
2023-12-03T09:52:31.109Z,76.23
2023-12-03T09:57:36.612Z,76.26
2023-12-03T10:02:39.177Z,76.17
2023-12-03T10:07:41.927Z,75.69
2023-12-03T10:12:45.128Z,75.79
2023-12-03T10:17:47.681Z,75.85
2023-12-03T10:22:50.890Z,75.90
2023-12-03T10:27:57.535Z,75.97
2023-12-03T10:33:00.565Z,75.98
2023-12-03T10:38:09.622Z,75.81
2023-12-03T10:43:14.981Z,75.64
2023-12-03T10:48:17.251Z,75.71
2023-12-03T10:53:21.057Z,75.98
2023-12-03T10:58:23.310Z,76.06
2023-12-03T11:03:35.934Z,76.20
2023-12-03T11:08:39.350Z,76.30
2023-12-03T11:13:46.967Z,76.17
2023-12-03T11:19:06.888Z,76.34
2023-12-03T11:24:30.396Z,76.05
2023-12-03T11:29:51.577Z,76.28
2023-12-03T11:35:00.754Z,76.27
2023-12-03T11:40:14.154Z,76.64
2023-12-03T11:45:27.819Z,76.36
2023-12-03T11:50:31.680Z,76.76
2023-12-03T11:55:37.577Z,76.67
2023-12-03T12:00:41.065Z,76.78
2023-12-03T12:05:54.408Z,76.79
2023-12-03T12:10:57.429Z,77.10
2023-12-03T12:15:59.980Z,77.75
2023-12-03T12:21:12.214Z,77.73
2023-12-03T12:26:15.191Z,77.63
2023-12-03T12:31:21.053Z,78.16
2023-12-03T12:36:23.249Z,78.34
2023-12-03T12:41:25.465Z,78.41
2023-12-03T12:46:27.554Z,78.48
2023-12-03T12:51:29.698Z,78.68
2023-12-03T12:56:32.468Z,78.95
2023-12-03T13:01:34.774Z,78.98
2023-12-03T13:06:36.930Z,79.05
2023-12-03T13:11:39.045Z,79.14
2023-12-03T13:16:42.340Z,79.35
2023-12-03T13:21:45.727Z,79.21
2023-12-03T13:26:49.157Z,79.43
2023-12-03T13:31:51.309Z,79.73
2023-12-03T13:36:53.820Z,79.58
2023-12-03T13:41:55.875Z,79.64
2023-12-03T13:46:58.731Z,79.82
2023-12-03T13:52:00.832Z,79.87
2023-12-03T13:57:03.079Z,79.55
2023-12-03T14:02:06.678Z,79.88
2023-12-03T14:07:09.422Z,79.83
2023-12-03T14:12:12.493Z,79.96
2023-12-03T14:17:17.253Z,79.99
2023-12-03T14:22:19.311Z,80.02
2023-12-03T14:27:21.984Z,80.13
2023-12-03T14:32:24.054Z,79.97
2023-12-03T14:37:26.169Z,79.95
2023-12-03T14:42:29.364Z,79.86
2023-12-03T14:47:31.837Z,79.89
2023-12-03T14:52:33.984Z,79.97
2023-12-03T14:57:36.639Z,79.98
2023-12-03T15:02:38.886Z,80.02
2023-12-03T15:07:41.025Z,80.05
2023-12-03T15:12:43.175Z,80.03
2023-12-03T15:17:45.415Z,80.06
2023-12-03T15:22:47.528Z,79.97
2023-12-03T15:27:49.683Z,80.33
2023-12-03T15:32:52.131Z,80.16
2023-12-03T15:37:55.855Z,80.18
2023-12-03T15:42:58.214Z,80.27
2023-12-03T15:48:00.583Z,80.08
2023-12-03T15:53:03.016Z,80.23
2023-12-03T15:58:05.130Z,80.18
2023-12-03T16:03:07.856Z,80.20
2023-12-03T16:08:09.943Z,80.32
2023-12-03T16:13:12.387Z,80.22
2023-12-03T16:18:14.630Z,80.47
2023-12-03T16:23:17.039Z,80.53
2023-12-03T16:28:19.020Z,80.45
2023-12-03T16:33:21.457Z,80.32
2023-12-03T16:38:23.705Z,80.39
2023-12-03T16:43:25.872Z,80.45
2023-12-03T16:48:28.134Z,80.49
2023-12-03T16:53:30.465Z,80.36
2023-12-03T16:58:33.100Z,80.30
2023-12-03T17:03:35.100Z,80.42
2023-12-03T17:08:39.734Z,80.30
2023-12-03T17:13:41.807Z,79.93
2023-12-03T17:18:45.869Z,80.26
2023-12-03T17:23:48.078Z,80.04
2023-12-03T17:28:50.159Z,79.97
2023-12-03T17:33:52.274Z,79.79
2023-12-03T17:38:54.352Z,79.82
2023-12-03T17:43:56.492Z,79.81
2023-12-03T17:48:58.742Z,79.80
2023-12-03T17:54:00.852Z,79.63
2023-12-03T17:59:02.918Z,79.74
2023-12-03T18:04:05.102Z,79.78
2023-12-03T18:09:08.867Z,79.81
2023-12-03T18:14:11.245Z,79.73
2023-12-03T18:19:13.897Z,79.84
2023-12-03T18:24:16.059Z,79.80
2023-12-03T18:29:18.377Z,79.99
2023-12-03T18:34:20.480Z,79.79
2023-12-03T18:39:23.775Z,79.97
2023-12-03T18:44:28.085Z,80.12
2023-12-03T18:49:31.251Z,80.00
2023-12-03T18:54:35.618Z,80.05
2023-12-03T18:59:38.513Z,79.93
2023-12-03T19:04:40.678Z,80.01
2023-12-03T19:09:42.913Z,79.81
2023-12-03T19:14:44.939Z,79.73
2023-12-03T19:19:47.045Z,79.90
2023-12-03T19:24:49.278Z,79.68
2023-12-03T19:29:51.538Z,79.53
2023-12-03T19:34:53.679Z,79.54
2023-12-03T19:39:56.717Z,79.78
2023-12-03T19:44:58.841Z,79.60
2023-12-03T19:50:01.001Z,79.61
2023-12-03T19:55:06.189Z,79.63
2023-12-03T20:00:08.907Z,79.57
2023-12-03T20:05:16.129Z,79.60
2023-12-03T20:10:18.479Z,79.57
2023-12-03T20:15:25.351Z,79.48
2023-12-03T20:20:31.002Z,79.55
2023-12-03T20:25:34.405Z,79.42
2023-12-03T20:30:36.604Z,79.43
2023-12-03T20:35:38.962Z,79.32
2023-12-03T20:40:41.041Z,79.23
2023-12-03T20:45:43.174Z,79.30
2023-12-03T20:50:45.201Z,79.17
2023-12-03T20:55:47.387Z,79.12
2023-12-03T21:00:49.598Z,79.07
2023-12-03T21:05:51.844Z,78.91
2023-12-03T21:10:53.963Z,78.84
2023-12-03T21:15:56.033Z,78.63
2023-12-03T21:20:58.120Z,78.54
2023-12-03T21:26:00.175Z,78.44
2023-12-03T21:31:02.348Z,78.24
2023-12-03T21:36:05.369Z,78.16
2023-12-03T21:41:07.975Z,77.88
2023-12-03T21:46:10.427Z,77.56
2023-12-03T21:51:13.096Z,77.59
2023-12-03T21:56:15.452Z,77.14
2023-12-03T22:01:17.698Z,77.09
2023-12-03T22:06:20.952Z,76.72
2023-12-03T22:11:23.236Z,76.56
2023-12-03T22:16:25.526Z,76.50
2023-12-03T22:21:27.772Z,76.25
2023-12-03T22:26:29.943Z,76.12
2023-12-03T22:31:32.154Z,76.15
2023-12-03T22:36:34.342Z,75.95
2023-12-03T22:41:36.889Z,75.85
2023-12-03T22:46:39.138Z,75.56
2023-12-03T22:51:41.291Z,75.74
2023-12-03T22:56:43.889Z,75.64
2023-12-03T23:01:46.155Z,75.76
2023-12-03T23:06:48.362Z,75.50
2023-12-03T23:11:50.754Z,75.60
2023-12-03T23:16:53.035Z,75.63
2023-12-03T23:21:55.124Z,75.45
2023-12-03T23:27:03.283Z,75.39
2023-12-03T23:32:12.508Z,75.06
2023-12-03T23:37:16.714Z,74.89
2023-12-03T23:42:18.914Z,74.56
2023-12-03T23:47:21.062Z,74.61
2023-12-03T23:52:23.213Z,74.83
2023-12-03T23:57:25.693Z,74.60
